Time;durP1;ratioP1;P1;durP2;ratioP2;P2;SDS_P1;SDS_P2;PMS_P1;PMS_P2;Temp;Humidity;BMP_temperature;BMP_pressure;BME280_temperature;BME280_humidity;BME280_pressure;Samples;Min_cycle;Max_cycle;Signal;HPM_P1;HPM_P2
2022/06/06 00:01:45;;;;;;;8.32;5.85;;;15.30;99.90;;;;;;4882003;29;20040;-83
2022/06/06 00:04:11;;;;;;;8.73;4.95;;;15.20;99.90;;;;;;4882494;29;20049;-84
2022/06/06 00:06:39;;;;;;;;;;;15.20;99.90;;;;;;4867504;29;20103;-83
2022/06/06 00:09:05;;;;;;;8.15;4.63;;;15.20;99.90;;;;;;4882603;29;19969;-83
2022/06/06 00:11:32;;;;;;;8.52;4.93;;;15.10;99.90;;;;;;4898079;29;20104;-83
2022/06/06 00:13:58;;;;;;;5.93;4.43;;;15.10;99.90;;;;;;4882610;29;20132;-83
2022/06/06 00:16:24;;;;;;;6.23;4.37;;;15.00;99.90;;;;;;4872438;29;20088;-84
2022/06/06 00:18:50;;;;;;;6.63;4.50;;;15.00;99.90;;;;;;4852533;29;20037;-83
2022/06/06 00:21:15;;;;;;;6.97;5.03;;;14.90;99.90;;;;;;4881901;29;20293;-87
2022/06/06 00:23:41;;;;;;;7.93;4.23;;;14.90;99.90;;;;;;4880587;29;20411;-83
2022/06/06 00:26:09;;;;;;;4.20;3.60;;;14.90;99.90;;;;;;4857119;29;20040;-84
2022/06/06 00:28:39;;;;;;;5.63;3.55;;;14.90;99.90;;;;;;4869539;29;20041;-83
2022/06/06 00:36:36;;;;;;;5.18;3.50;;;14.70;99.90;;;;;;4881205;29;20048;-84
2022/06/06 00:39:05;;;;;;;7.35;3.80;;;14.70;99.90;;;;;;4880561;29;20096;-86
2022/06/06 00:41:31;;;;;;;4.93;3.40;;;14.70;99.90;;;;;;4897939;29;20444;-82
2022/06/06 00:44:09;;;;;;;5.37;3.87;;;14.70;99.90;;;;;;4865913;29;20068;-83
2022/06/06 00:46:39;;;;;;;4.55;3.47;;;14.70;99.90;;;;;;4881268;29;20136;-83
2022/06/06 00:49:12;;;;;;;5.60;3.90;;;14.70;99.90;;;;;;4878614;29;20120;-84
2022/06/06 00:51:37;;;;;;;6.55;3.88;;;14.70;99.90;;;;;;4881496;29;20048;-83
2022/06/06 00:54:06;;;;;;;4.60;3.80;;;14.70;99.90;;;;;;4894190;29;20045;-83
2022/06/06 00:56:54;;;;;;;4.72;3.88;;;14.70;99.90;;;;;;4869053;29;20056;-84
2022/06/06 00:59:28;;;;;;;6.72;3.95;;;14.70;99.90;;;;;;4880176;29;20044;-83
2022/06/06 01:01:55;;;;;;;5.70;4.38;;;14.70;99.90;;;;;;4881602;29;20056;-84
2022/06/06 01:04:23;;;;;;;5.63;3.78;;;14.70;99.90;;;;;;4863505;29;20284;-83
2022/06/06 01:06:50;;;;;;;5.80;3.75;;;14.60;99.90;;;;;;4881028;29;20051;-83
2022/06/06 01:09:18;;;;;;;5.35;3.92;;;14.60;99.90;;;;;;4853081;29;20403;-83
2022/06/06 01:11:48;;;;;;;4.65;3.42;;;14.60;99.90;;;;;;4880436;29;20500;-83
2022/06/06 01:14:19;;;;;;;3.65;2.95;;;14.60;99.90;;;;;;4878540;29;20079;-87
2022/06/06 01:17:19;;;;;;;3.72;3.20;;;14.50;99.90;;;;;;4879449;29;20056;-83
2022/06/06 01:20:07;;;;;;;3.45;2.95;;;14.50;99.90;;;;;;4863530;29;20091;-83
2022/06/06 01:22:39;;;;;;;4.85;2.90;;;14.50;99.90;;;;;;4877827;29;20047;-84
2022/06/06 01:25:17;;;;;;;3.60;2.88;;;14.40;99.90;;;;;;4853337;29;20568;-85
2022/06/06 01:27:58;;;;;;;3.05;2.72;;;14.40;99.90;;;;;;4879390;29;20136;-83
2022/06/06 01:30:41;;;;;;;2.55;2.35;;;14.40;99.90;;;;;;4855505;29;20052;-83
2022/06/06 01:33:12;;;;;;;3.63;2.58;;;14.40;99.90;;;;;;4880499;29;20053;-83
2022/06/06 01:35:42;;;;;;;5.35;2.20;;;14.40;99.90;;;;;;4879442;29;20518;-84
2022/06/06 01:38:10;;;;;;;3.58;2.60;;;14.40;99.90;;;;;;4864595;29;20086;-83
2022/06/06 01:40:42;;;;;;;3.40;2.33;;;14.30;99.90;;;;;;4880617;29;20044;-83
2022/06/06 01:43:16;;;;;;;2.78;2.47;;;14.30;99.90;;;;;;4880234;29;20052;-83
2022/06/06 01:45:55;;;;;;;3.60;2.38;;;14.30;99.90;;;;;;4896188;29;20620;-84
2022/06/06 01:48:29;;;;;;;3.08;2.78;;;14.30;99.90;;;;;;4880520;29;20060;-83
2022/06/06 01:50:55;;;;;;;3.78;3.03;;;14.20;99.90;;;;;;4880731;29;20071;-84
2022/06/06 01:53:23;;;;;;;3.05;2.55;;;14.20;99.90;;;;;;4856505;29;20057;-83
2022/06/06 01:55:51;;;;;;;4.55;3.22;;;14.10;99.90;;;;;;4879131;29;20131;-83
2022/06/06 01:58:23;;;;;;;5.18;2.90;;;14.20;99.90;;;;;;4895721;29;20043;-83
2022/06/06 02:00:49;;;;;;;5.22;3.35;;;14.10;99.90;;;;;;4896778;29;20044;-83
2022/06/06 02:03:15;;;;;;;4.72;3.00;;;14.10;99.90;;;;;;4879628;29;20040;-84
2022/06/06 02:05:41;;;;;;;3.83;3.43;;;14.10;99.90;;;;;;4878407;29;20543;-84
2022/06/06 02:08:08;;;;;;;8.70;3.93;;;14.10;99.90;;;;;;4880574;29;20507;-83
2022/06/06 02:10:34;;;;;;;6.13;3.83;;;14.10;99.90;;;;;;4880625;29;20074;-83
2022/06/06 02:12:59;;;;;;;4.93;4.05;;;14.10;99.90;;;;;;4865957;29;20053;-84
2022/06/06 02:15:26;;;;;;;6.47;4.50;;;14.00;99.90;;;;;;4879336;29;20536;-83
2022/06/06 02:17:53;;;;;;;6.35;4.85;;;14.00;99.90;;;;;;4879754;29;20053;-83
2022/06/06 02:20:23;;;;;;;5.85;3.75;;;14.00;99.90;;;;;;4880871;29;20052;-83
2022/06/06 02:22:49;;;;;;;5.53;4.07;;;14.00;99.90;;;;;;4858644;29;20586;-83
2022/06/06 02:25:15;;;;;;;5.43;4.22;;;14.00;99.90;;;;;;4861125;29;20052;-84
2022/06/06 02:27:41;;;;;;;5.07;4.03;;;14.00;99.90;;;;;;4879690;29;20487;-84
2022/06/06 02:30:09;;;;;;;;;;;13.90;99.90;;;;;;4873517;29;20045;-84
2022/06/06 02:32:35;;;;;;;6.93;4.65;;;13.90;99.90;;;;;;4877890;29;19974;-85
2022/06/06 02:35:00;;;;;;;6.53;4.57;;;13.90;99.90;;;;;;4864051;29;20084;-85
2022/06/06 02:37:26;;;;;;;8.87;4.97;;;13.90;99.90;;;;;;4861902;29;20049;-86
2022/06/06 02:39:52;;;;;;;6.10;4.13;;;13.90;99.90;;;;;;4859211;29;20032;-83
2022/06/06 02:42:18;;;;;;;5.20;3.77;;;13.90;99.90;;;;;;4864977;29;20048;-83
2022/06/06 02:44:43;;;;;;;4.87;4.37;;;13.90;99.90;;;;;;4857702;29;20049;-84
2022/06/06 02:47:09;;;;;;;7.77;4.93;;;13.90;99.90;;;;;;4880575;29;20111;-83
2022/06/06 02:49:35;;;;;;;5.03;4.03;;;13.90;99.90;;;;;;4864125;29;20053;-83
2022/06/06 02:52:02;;;;;;;6.95;4.15;;;13.90;99.90;;;;;;4863344;29;20111;-83
2022/06/06 02:54:29;;;;;;;6.10;3.72;;;13.90;99.90;;;;;;4878787;29;20083;-83
2022/06/06 02:56:55;;;;;;;;;;;13.90;99.90;;;;;;4877095;29;20391;-83
2022/06/06 02:59:23;;;;;;;5.75;4.47;;;13.90;99.90;;;;;;4894045;29;19978;-84
2022/06/06 03:01:49;;;;;;;6.13;4.72;;;13.90;99.90;;;;;;4879403;29;20138;-83
2022/06/06 03:04:15;;;;;;;6.13;4.47;;;13.90;99.90;;;;;;4878790;29;20123;-83
2022/06/06 03:07:09;;;;;;;6.33;4.50;;;13.90;99.90;;;;;;4880093;29;20204;-83
2022/06/06 03:10:01;;;;;;;4.53;4.00;;;13.90;99.90;;;;;;4892166;29;20101;-83
2022/06/06 03:12:56;;;;;;;4.70;2.97;;;13.90;99.90;;;;;;4895016;29;20058;-86
2022/06/06 03:21:54;;;;;;;3.05;2.50;;;13.90;99.90;;;;;;4895338;29;20072;-88
2022/06/06 03:24:48;;;;;;;3.08;2.35;;;13.90;99.90;;;;;;4861368;29;20535;-83
2022/06/06 03:27:25;;;;;;;3.22;2.92;;;13.90;99.90;;;;;;4880913;29;20395;-83
2022/06/06 03:30:03;;;;;;;3.35;2.80;;;13.90;99.90;;;;;;4857247;29;20056;-85
2022/06/06 03:32:34;;;;;;;6.55;3.30;;;13.90;99.90;;;;;;4897363;29;20449;-83
2022/06/06 03:35:40;;;;;;;8.75;4.75;;;13.90;99.90;;;;;;4882103;29;20504;-83
2022/06/06 03:38:40;;;;;;;5.47;4.95;;;13.90;99.90;;;;;;4882718;29;20063;-85
2022/06/06 03:41:36;;;;;;;7.55;6.03;;;13.80;99.90;;;;;;4882250;29;20138;-83
2022/06/06 03:44:02;;;;;;;9.52;6.20;;;13.80;99.90;;;;;;4860224;29;20060;-84
2022/06/06 03:47:09;;;;;;;10.73;6.03;;;13.70;99.90;;;;;;4882851;29;20452;-83
2022/06/06 03:50:04;;;;;;;7.35;4.63;;;13.70;99.90;;;;;;4848707;29;20443;-84
2022/06/06 03:52:38;;;;;;;8.00;5.97;;;13.70;99.90;;;;;;4883223;29;20192;-83
2022/06/06 03:55:36;;;;;;;10.50;6.43;;;13.70;99.90;;;;;;4881651;29;20040;-83
2022/06/06 03:58:03;;;;;;;9.35;6.05;;;13.70;99.90;;;;;;4882052;29;20048;-84
2022/06/06 04:00:31;;;;;;;9.98;5.93;;;13.60;99.90;;;;;;4879436;29;20053;-83
2022/06/06 04:03:00;;;;;;;12.05;6.63;;;13.60;99.90;;;;;;4876980;29;20523;-84
2022/06/06 04:05:27;;;;;;;12.23;7.07;;;13.60;99.90;;;;;;4856908;29;20105;-84
2022/06/06 04:07:53;;;;;;;11.45;6.72;;;13.60;99.90;;;;;;4881767;29;20509;-84
2022/06/06 04:10:24;;;;;;;15.10;8.30;;;13.50;99.90;;;;;;4882703;29;20144;-83
2022/06/06 04:13:34;;;;;;;13.73;6.75;;;13.60;99.90;;;;;;4882800;29;20143;-88
2022/06/06 04:16:30;;;;;;;10.88;5.70;;;13.50;99.90;;;;;;4840640;29;20041;-83
2022/06/06 04:19:08;;;;;;;8.57;4.60;;;13.40;99.90;;;;;;4851607;29;20082;-84
2022/06/06 04:21:46;;;;;;;6.82;4.78;;;13.40;99.90;;;;;;4889343;29;20056;-84
2022/06/06 04:24:46;;;;;;;6.65;4.30;;;13.40;99.90;;;;;;4877060;29;20060;-84
2022/06/06 04:27:23;;;;;;;5.95;3.95;;;13.40;99.90;;;;;;4848907;29;20533;-84
2022/06/06 04:30:04;;;;;;;6.22;3.92;;;13.40;99.90;;;;;;4850184;29;20054;-83
2022/06/06 04:32:57;;;;;;;4.60;3.90;;;13.40;99.90;;;;;;4876593;29;20388;-84
2022/06/06 04:35:38;;;;;;;4.50;3.15;;;13.30;99.90;;;;;;4877914;29;20041;-83
2022/06/06 04:38:14;;;;;;;8.38;4.10;;;13.30;99.90;;;;;;4877711;29;20053;-83
2022/06/06 04:40:53;;;;;;;5.57;3.50;;;13.30;99.90;;;;;;4879221;29;20514;-84
2022/06/06 04:43:37;;;;;;;4.85;3.33;;;13.30;99.90;;;;;;4878681;29;20056;-84
2022/06/06 04:46:03;;;;;;;3.80;3.30;;;13.30;99.90;;;;;;4876904;29;20048;-84
2022/06/06 04:48:30;;;;;;;7.40;5.07;;;13.20;99.90;;;;;;4878992;29;20045;-83
2022/06/06 04:50:57;;;;;;;7.55;5.70;;;13.20;99.90;;;;;;4878065;29;20037;-89
2022/06/06 04:53:24;;;;;;;10.02;6.88;;;13.20;99.90;;;;;;4878837;29;20104;-84
2022/06/06 04:55:52;;;;;;;14.00;6.82;;;13.20;99.90;;;;;;4876231;29;20124;-84
2022/06/06 04:58:20;;;;;;;12.70;7.18;;;13.20;99.90;;;;;;4878098;29;20516;-83
2022/06/06 05:00:46;;;;;;;15.57;9.35;;;13.20;99.90;;;;;;4872810;29;20041;-84
2022/06/06 05:03:13;;;;;;;13.48;8.38;;;13.10;99.90;;;;;;4878358;29;20107;-84
2022/06/06 05:05:57;;;;;;;11.85;8.27;;;13.10;99.90;;;;;;4877628;29;20057;-83
2022/06/06 05:08:40;;;;;;;14.25;8.70;;;13.10;99.90;;;;;;4878303;29;20076;-84
2022/06/06 05:11:22;;;;;;;13.00;8.98;;;13.10;99.90;;;;;;4878213;29;20096;-84
2022/06/06 05:13:58;;;;;;;19.48;9.05;;;13.10;99.90;;;;;;4878450;29;20049;-83
2022/06/06 05:16:52;;;;;;;16.58;8.95;;;13.10;99.90;;;;;;4874803;29;20053;-84
2022/06/06 05:19:36;;;;;;;14.60;8.15;;;13.10;99.90;;;;;;4893627;29;20059;-84
2022/06/06 05:22:29;;;;;;;12.85;9.00;;;13.10;99.90;;;;;;4858524;29;20076;-89
2022/06/06 05:25:28;;;;;;;12.75;7.93;;;13.10;99.90;;;;;;4878566;29;20453;-84
2022/06/06 05:28:08;;;;;;;14.13;9.18;;;13.10;99.90;;;;;;4878488;29;20488;-83
2022/06/06 05:30:58;;;;;;;15.73;8.77;;;13.10;99.90;;;;;;4875402;29;20049;-84
2022/06/06 05:33:31;;;;;;;20.08;8.60;;;13.10;99.90;;;;;;4876953;29;20048;-83
2022/06/06 05:36:33;;;;;;;18.05;9.88;;;13.10;99.90;;;;;;4877369;29;20045;-84
2022/06/06 05:39:01;;;;;;;14.93;8.25;;;13.10;99.90;;;;;;4875850;29;20389;-83
2022/06/06 05:41:59;;;;;;;15.98;7.60;;;13.10;99.90;;;;;;4893264;29;20041;-83
2022/06/06 05:44:33;;;;;;;;;;;13.10;99.90;;;;;;4858506;29;20060;-83
2022/06/06 05:47:13;;;;;;;10.13;5.38;;;13.10;99.90;;;;;;4875622;29;20458;-83
2022/06/06 05:49:48;;;;;;;10.93;5.82;;;13.10;99.90;;;;;;4867961;29;20078;-84
2022/06/06 05:52:34;;;;;;;13.02;6.70;;;13.10;99.90;;;;;;4877178;29;20485;-83
2022/06/06 05:55:35;;;;;;;12.10;7.45;;;13.10;99.90;;;;;;4862297;29;20400;-84
2022/06/06 05:58:26;;;;;;;8.88;5.13;;;13.10;99.90;;;;;;4815331;29;20064;-83
2022/06/06 06:01:24;;;;;;;6.68;5.13;;;13.10;99.90;;;;;;4860147;29;20055;-83
2022/06/06 06:04:15;;;;;;;8.20;5.75;;;13.10;99.90;;;;;;4831260;29;20112;-84
2022/06/06 06:07:22;;;;;;;9.82;5.20;;;13.10;99.90;;;;;;4860179;29;20060;-83
2022/06/06 06:10:06;;;;;;;6.53;5.03;;;13.10;99.90;;;;;;4876962;29;20492;-83
2022/06/06 06:12:47;;;;;;;6.75;4.40;;;13.10;99.90;;;;;;4877241;29;20065;-85
2022/06/06 06:15:25;;;;;;;8.90;5.10;;;13.20;99.90;;;;;;4848339;29;20041;-84
2022/06/06 06:17:54;;;;;;;6.65;4.85;;;13.10;99.90;;;;;;4868747;29;20611;-83
2022/06/06 06:20:23;;;;;;;7.50;5.22;;;13.20;99.90;;;;;;4879256;29;20488;-84
2022/06/06 06:23:01;;;;;;;7.88;4.50;;;13.20;99.90;;;;;;4880061;29;20060;-83
2022/06/06 06:25:27;;;;;;;6.25;4.05;;;13.20;99.90;;;;;;4849917;29;20052;-83
2022/06/06 06:27:58;;;;;;;8.60;4.30;;;13.20;99.90;;;;;;4863903;29;20049;-84
2022/06/06 06:30:28;;;;;;;6.05;4.40;;;13.20;99.90;;;;;;4896437;29;20536;-87
2022/06/06 06:33:06;;;;;;;8.52;4.65;;;13.20;99.90;;;;;;4875362;29;20061;-85
2022/06/06 06:36:04;;;;;;;8.57;4.57;;;13.20;99.90;;;;;;4895090;29;20036;-85
2022/06/06 06:38:51;;;;;;;;;;;13.20;99.90;;;;;;4878296;29;20188;-86
2022/06/06 06:41:21;;;;;;;6.97;4.45;;;13.20;99.90;;;;;;4874646;29;19927;-86
2022/06/06 06:43:49;;;;;;;8.77;4.80;;;13.20;99.90;;;;;;4880234;29;20514;-85
2022/06/06 06:46:39;;;;;;;6.30;4.95;;;13.20;99.90;;;;;;4894708;29;20423;-85
2022/06/06 06:49:40;;;;;;;8.50;5.30;;;13.20;99.90;;;;;;4896667;29;20040;-85
2022/06/06 06:52:08;;;;;;;9.73;5.68;;;13.20;99.90;;;;;;4894633;29;20048;-85
2022/06/06 06:55:08;;;;;;;12.75;6.38;;;13.20;99.90;;;;;;4879618;29;20055;-85
2022/06/06 06:57:59;;;;;;;12.45;6.40;;;13.30;99.90;;;;;;4894828;29;20044;-86
2022/06/06 07:00:25;;;;;;;12.07;6.60;;;13.50;99.90;;;;;;4879447;29;20041;-86
2022/06/06 07:08:32;;;;;;;9.55;5.40;;;13.80;99.90;;;;;;4895269;29;20059;-85
2022/06/06 07:09:39;;;;;;;7.68;4.55;;;13.90;99.90;;;;;;4878870;29;20053;-84
2022/06/06 07:12:26;;;;;;;7.85;4.13;;;13.90;99.90;;;;;;4896152;29;20404;-84
2022/06/06 07:15:30;;;;;;;6.37;3.97;;;13.90;99.90;;;;;;4875461;29;20056;-84
2022/06/06 07:18:00;;;;;;;7.40;3.65;;;14.20;99.90;;;;;;4875567;29;20365;-84
2022/06/06 07:20:27;;;;;;;5.13;3.55;;;14.00;99.90;;;;;;4889247;29;20381;-84
2022/06/06 07:23:02;;;;;;;4.70;2.72;;;14.10;99.90;;;;;;4879524;29;20045;-83
2022/06/06 07:25:38;;;;;;;4.28;2.75;;;14.20;99.90;;;;;;4877206;29;20504;-85
2022/06/06 07:28:26;;;;;;;5.82;2.70;;;14.10;99.90;;;;;;4878649;29;20131;-83
2022/06/06 07:31:13;;;;;;;5.88;3.67;;;14.30;99.90;;;;;;4896419;29;20048;-84
2022/06/06 07:33:57;;;;;;;5.55;2.95;;;14.40;99.90;;;;;;4893666;29;20048;-84
2022/06/06 07:36:53;;;;;;;4.75;3.17;;;14.60;99.90;;;;;;4877983;29;20048;-84
2022/06/06 07:39:48;;;;;;;6.25;2.67;;;14.60;99.90;;;;;;4892751;29;20059;-89
2022/06/06 07:42:36;;;;;;;2.95;1.95;;;14.60;99.90;;;;;;4867128;29;20059;-84
2022/06/06 07:45:09;;;;;;;3.17;2.22;;;14.50;99.90;;;;;;4869651;29;20500;-84
2022/06/06 07:47:46;;;;;;;3.45;2.22;;;14.40;99.90;;;;;;4877230;29;20040;-85
2022/06/06 07:50:21;;;;;;;4.05;3.38;;;14.40;99.90;;;;;;4896372;29;20052;-84
2022/06/06 07:53:02;;;;;;;7.18;2.75;;;14.50;99.90;;;;;;4879311;29;20051;-85
2022/06/06 07:55:41;;;;;;;6.68;2.83;;;14.50;99.90;;;;;;4876618;29;20131;-85
2022/06/06 07:58:21;;;;;;;3.45;2.75;;;14.50;99.90;;;;;;4878435;29;20044;-83
2022/06/06 08:01:02;;;;;;;5.60;3.15;;;14.60;99.90;;;;;;4879209;29;20056;-83
2022/06/06 08:03:55;;;;;;;4.05;2.63;;;14.80;99.90;;;;;;4878787;29;20547;-83
2022/06/06 08:06:36;;;;;;;4.75;3.33;;;14.80;99.90;;;;;;4893429;29;20139;-83
2022/06/06 08:09:28;;;;;;;9.27;3.50;;;15.00;99.90;;;;;;4876989;29;20108;-83
2022/06/06 08:12:10;;;;;;;6.05;3.40;;;15.20;99.90;;;;;;4865707;29;20052;-83
2022/06/06 08:14:44;;;;;;;5.75;2.88;;;15.30;99.90;;;;;;4867208;29;20048;-84
2022/06/06 08:17:18;;;;;;;8.00;4.43;;;15.30;99.90;;;;;;4896847;29;20466;-84
2022/06/06 08:20:06;;;;;;;4.47;4.07;;;15.10;99.90;;;;;;4879264;29;20052;-84
2022/06/06 08:22:34;;;;;;;9.02;3.72;;;14.90;99.90;;;;;;4881441;29;20130;-84
2022/06/06 08:25:06;;;;;;;5.60;3.45;;;14.70;99.90;;;;;;4894959;29;20047;-84
2022/06/06 08:27:33;;;;;;;8.35;4.47;;;14.70;99.90;;;;;;4883630;29;20068;-84
2022/06/06 08:30:00;;;;;;;7.20;2.97;;;14.70;99.90;;;;;;4896111;29;20523;-84
2022/06/06 08:32:25;;;;;;;5.20;3.55;;;14.90;99.90;;;;;;4872752;29;20048;-85
2022/06/06 08:34:51;;;;;;;7.70;3.80;;;15.10;99.90;;;;;;4897673;29;20048;-84
2022/06/06 08:37:20;;;;;;;7.10;3.88;;;15.30;99.90;;;;;;4883547;29;20056;-84
2022/06/06 08:40:04;;;;;;;4.03;3.50;;;15.50;99.90;;;;;;4863344;29;20040;-85
2022/06/06 08:42:58;;;;;;;5.38;4.07;;;15.70;99.90;;;;;;4881250;29;20045;-90
2022/06/06 08:45:44;;;;;;;6.65;2.92;;;15.80;99.90;;;;;;4879313;29;20060;-85
2022/06/06 08:48:17;;;;;;;4.97;2.72;;;15.60;99.90;;;;;;4881102;29;20059;-83
2022/06/06 08:50:53;;;;;;;4.45;2.70;;;15.40;99.90;;;;;;4862939;29;20045;-83
2022/06/06 08:53:48;;;;;;;5.28;3.25;;;15.20;99.90;;;;;;4879745;29;20400;-83
2022/06/06 08:56:31;;;;;;;3.60;2.58;;;15.00;99.90;;;;;;4900296;29;20041;-85
2022/06/06 08:59:21;;;;;;;5.47;2.95;;;15.20;99.90;;;;;;4881014;29;20100;-82
2022/06/06 09:01:55;;;;;;;4.85;2.42;;;15.30;99.90;;;;;;4879448;29;20067;-80
2022/06/06 09:04:24;;;;;;;6.97;2.63;;;15.40;99.90;;;;;;4898222;29;20080;-82
2022/06/06 09:07:11;;;;;;;3.25;2.80;;;15.60;99.90;;;;;;4879633;29;20504;-82
2022/06/06 09:09:58;;;;;;;3.47;2.65;;;15.80;99.90;;;;;;4877685;29;20092;-83
2022/06/06 09:12:57;;;;;;;4.22;2.17;;;15.90;99.90;;;;;;4871073;29;20067;-84
2022/06/06 09:15:51;;;;;;;5.20;1.70;;;16.00;99.90;;;;;;4897520;29;20180;-82
2022/06/06 09:18:23;;;;;;;3.42;1.60;;;15.90;99.90;;;;;;4882010;29;20444;-82
2022/06/06 09:21:05;;;;;;;3.28;1.55;;;15.60;99.90;;;;;;4879008;29;20120;-84
2022/06/06 09:23:50;;;;;;;2.38;2.00;;;15.40;99.90;;;;;;4885716;29;20063;-83
2022/06/06 09:26:38;;;;;;;1.48;1.38;;;15.30;99.90;;;;;;4882605;29;20143;-82
2022/06/06 09:29:41;;;;;;;3.13;2.17;;;15.40;99.90;;;;;;4883055;29;20044;-83
2022/06/06 09:32:35;;;;;;;2.15;1.80;;;15.60;99.90;;;;;;4872865;29;20044;-83
2022/06/06 09:35:23;;;;;;;3.13;1.95;;;15.90;99.90;;;;;;4851510;29;20052;-83
2022/06/06 09:38:23;;;;;;;2.63;1.50;;;15.90;99.90;;;;;;4888386;29;20052;-83
2022/06/06 09:41:12;;;;;;;3.17;1.45;;;15.80;99.90;;;;;;4861099;29;20081;-83
2022/06/06 09:44:03;;;;;;;3.75;1.75;;;15.70;99.90;;;;;;4871874;29;20092;-87
2022/06/06 09:47:09;;;;;;;3.08;1.45;;;15.50;99.90;;;;;;4864017;29;20057;-83
2022/06/06 09:49:59;;;;;;;1.98;1.77;;;15.40;99.90;;;;;;4856940;29;20052;-83
2022/06/06 09:52:31;;;;;;;1.83;1.60;;;15.30;99.90;;;;;;4868893;29;20067;-83
2022/06/06 10:01:14;;;;;;;1.55;1.45;;;15.70;99.90;;;;;;4881602;29;20060;-83
2022/06/06 10:03:46;;;;;;;1.90;1.77;;;16.10;99.90;;;;;;4887076;29;20056;-86
2022/06/06 10:06:49;;;;;;;3.83;1.67;;;16.30;99.90;;;;;;4880257;29;20080;-82
2022/06/06 10:09:43;;;;;;;2.10;1.73;;;16.30;99.90;;;;;;4868348;29;20067;-83
2022/06/06 10:12:32;;;;;;;2.40;2.10;;;16.20;99.90;;;;;;4887004;29;20056;-84
2022/06/06 10:15:07;;;;;;;1.60;1.50;;;16.20;99.90;;;;;;4895521;29;20041;-83
2022/06/06 10:17:45;;;;;;;3.60;1.85;;;16.20;99.90;;;;;;4896149;29;20120;-83
2022/06/06 10:20:10;;;;;;;3.10;1.85;;;16.40;99.90;;;;;;4870811;29;20052;-83
2022/06/06 10:22:42;;;;;;;2.90;1.97;;;16.60;99.90;;;;;;4877867;29;20067;-83
2022/06/06 10:25:14;;;;;;;2.45;2.08;;;16.70;99.90;;;;;;4881459;29;20303;-83
2022/06/06 10:27:55;;;;;;;6.63;1.27;;;16.70;99.90;;;;;;4866250;29;20064;-83
2022/06/06 10:30:28;;;;;;;1.38;1.27;;;16.40;99.90;;;;;;4866254;29;20056;-83
2022/06/06 10:32:59;;;;;;;1.77;1.38;;;15.90;99.90;;;;;;4891229;29;20045;-83
2022/06/06 10:35:49;;;;;;;1.38;1.17;;;15.40;99.90;;;;;;4862619;29;20048;-83
2022/06/06 10:38:29;;;;;;;3.60;1.08;;;15.00;99.90;;;;;;4862725;29;20044;-82
2022/06/06 10:40:58;;;;;;;1.30;1.20;;;14.80;99.90;;;;;;4862480;29;20392;-82
2022/06/06 10:43:53;;;;;;;2.45;1.38;;;14.70;99.90;;;;;;4847487;29;20144;-83
2022/06/06 10:46:47;;;;;;;2.55;1.60;;;14.70;99.90;;;;;;4862822;29;20140;-82
2022/06/06 10:49:47;;;;;;;5.53;2.05;;;14.90;99.90;;;;;;4874887;29;20063;-83
2022/06/06 10:52:31;;;;;;;2.75;2.38;;;15.20;99.90;;;;;;4881659;29;20056;-83
2022/06/06 10:55:11;;;;;;;2.95;1.70;;;15.30;99.90;;;;;;4880630;29;20070;-83
2022/06/06 10:58:15;;;;;;;2.13;1.75;;;15.40;99.90;;;;;;4881220;29;20055;-82
2022/06/06 11:00:56;;;;;;;2.15;1.60;;;15.50;99.90;;;;;;4862635;29;20059;-83
2022/06/06 11:04:00;;;;;;;2.15;1.90;;;15.70;99.90;;;;;;4881242;29;20048;-83
2022/06/06 11:06:45;;;;;;;2.33;1.92;;;15.80;99.90;;;;;;4861759;29;20087;-83
2022/06/06 11:09:17;;;;;;;3.33;2.35;;;15.80;99.90;;;;;;4878957;29;20060;-83
2022/06/06 11:12:07;;;;;;;2.28;2.08;;;15.80;99.90;;;;;;4897676;29;20048;-84
2022/06/06 11:14:41;;;;;;;2.80;1.73;;;15.70;99.90;;;;;;4865481;29;20135;-83
2022/06/06 11:17:46;;;;;;;1.98;1.75;;;15.70;99.90;;;;;;4879965;29;20067;-83
2022/06/06 11:20:39;;;;;;;2.35;1.52;;;15.80;99.90;;;;;;4880484;29;20163;-83
2022/06/06 11:23:24;;;;;;;4.40;1.70;;;15.90;99.90;;;;;;4880473;29;20051;-84
2022/06/06 11:26:17;;;;;;;3.53;1.92;;;16.20;99.90;;;;;;4880885;29;20052;-87
2022/06/06 11:29:01;;;;;;;4.55;1.92;;;16.40;99.90;;;;;;4866427;29;20048;-83
2022/06/06 11:31:52;;;;;;;3.30;1.40;;;16.60;99.90;;;;;;4880918;29;20488;-83
2022/06/06 11:34:45;;;;;;;1.92;1.83;;;16.70;99.90;;;;;;4862513;29;20061;-83
2022/06/06 11:37:34;;;;;;;2.70;2.17;;;16.70;99.90;;;;;;4880039;29;20053;-83
2022/06/06 11:40:40;;;;;;;4.35;1.60;;;17.00;99.90;;;;;;4865011;29;20063;-83
2022/06/06 11:43:43;;;;;;;1.50;1.40;;;17.00;99.90;;;;;;4880346;29;20048;-83
2022/06/06 11:46:25;;;;;;;1.50;1.40;;;17.10;99.90;;;;;;4864750;29;20088;-83
2022/06/06 11:48:57;;;;;;;1.63;1.50;;;17.10;99.90;;;;;;4883690;29;20052;-83
2022/06/06 11:51:58;;;;;;;1.88;1.77;;;17.20;99.90;;;;;;4869273;29;20052;-83
2022/06/06 11:55:04;;;;;;;3.40;1.30;;;17.30;99.90;;;;;;4882816;29;20471;-83
2022/06/06 11:58:02;;;;;;;2.33;2.03;;;17.30;99.90;;;;;;4869121;29;20143;-83
2022/06/06 12:00:55;;;;;;;3.45;1.50;;;17.40;99.90;;;;;;4868881;29;20141;-83
2022/06/06 12:03:42;;;;;;;2.17;1.65;;;17.40;99.90;;;;;;4868688;29;20063;-83
2022/06/06 12:06:26;;;;;;;1.35;1.25;;;17.50;99.90;;;;;;4868273;29;20064;-84
2022/06/06 12:09:07;;;;;;;1.63;1.52;;;17.50;99.90;;;;;;4868809;29;20415;-83
2022/06/06 12:11:41;;;;;;;1.30;1.20;;;17.30;99.90;;;;;;4884207;29;20096;-83
2022/06/06 12:14:43;;;;;;;1.27;0.98;;;17.20;99.90;;;;;;4867887;29;20056;-83
2022/06/06 12:17:39;;;;;;;0.95;0.93;;;17.20;99.90;;;;;;4867376;29;20574;-83
2022/06/06 12:20:23;;;;;;;1.05;1.05;;;17.20;99.90;;;;;;4868000;29;20052;-84
2022/06/06 12:23:10;;;;;;;1.42;1.30;;;17.20;99.90;;;;;;4882616;29;20059;-84
2022/06/06 12:26:03;;;;;;;2.67;0.80;;;18.20;99.90;;;;;;4865449;29;20044;-83
2022/06/06 12:28:48;;;;;;;0.82;0.82;;;17.30;99.90;;;;;;4865329;29;20060;-83
2022/06/06 12:31:40;;;;;;;1.00;0.85;;;17.40;99.90;;;;;;4849183;29;20400;-83
2022/06/06 12:34:36;;;;;;;0.60;0.60;;;17.40;99.90;;;;;;4864567;29;20061;-84
2022/06/06 12:37:22;;;;;;;0.73;0.60;;;17.60;99.90;;;;;;4864706;29;20113;-85
2022/06/06 12:39:58;;;;;;;0.57;0.50;;;17.60;99.90;;;;;;4865240;29;20060;-83
2022/06/06 12:42:39;;;;;;;0.60;0.60;;;17.50;99.90;;;;;;4849038;29;20057;-83
2022/06/06 12:46:03;;;;;;;0.47;0.40;;;17.50;99.90;;;;;;4864214;29;20487;-84
2022/06/06 12:48:49;;;;;;;1.33;0.75;;;17.50;99.90;;;;;;4844069;29;20108;-86
2022/06/06 12:51:35;;;;;;;0.63;0.63;;;17.30;99.90;;;;;;4898697;29;20072;-91
2022/06/06 12:55:30;;;;;;;1.00;0.90;;;17.20;99.90;;;;;;4868427;29;20491;-93
2022/06/06 12:57:32;;;;;;;1.88;1.00;;;17.10;99.90;;;;;;4879968;29;20127;-86
2022/06/06 13:00:07;;;;;;;1.02;0.98;;;17.00;99.90;;;;;;4858229;29;20052;-84
2022/06/06 13:03:01;;;;;;;1.10;1.00;;;16.90;99.90;;;;;;4880247;29;20139;-84
2022/06/06 13:05:54;;;;;;;2.20;0.88;;;16.70;99.90;;;;;;4882043;29;20575;-85
2022/06/06 13:08:28;;;;;;;1.90;0.80;;;16.60;99.90;;;;;;4881873;29;20048;-85
2022/06/06 13:11:31;;;;;;;1.17;1.15;;;16.50;99.90;;;;;;4867550;29;20060;-84
2022/06/06 13:14:29;;;;;;;1.20;1.10;;;16.40;99.90;;;;;;4882320;29;20053;-85
2022/06/06 13:17:22;;;;;;;2.15;1.15;;;16.40;99.90;;;;;;4845636;29;20453;-85
2022/06/06 13:19:58;;;;;;;0.90;0.90;;;16.40;99.90;;;;;;4858491;29;20068;-86
2022/06/06 13:22:33;;;;;;;0.80;0.80;;;16.40;99.90;;;;;;4866199;29;20058;-85
2022/06/06 13:25:32;;;;;;;0.63;0.63;;;16.40;99.90;;;;;;4868918;29;20124;-85
2022/06/06 13:27:59;;;;;;;1.83;1.42;;;16.50;99.90;;;;;;4852806;29;20052;-85
2022/06/06 13:30:27;;;;;;;0.93;0.75;;;16.50;99.90;;;;;;4863486;29;20059;-85
2022/06/06 13:33:30;;;;;;;1.00;1.00;;;16.50;99.90;;;;;;4882449;29;20119;-86
2022/06/06 13:35:59;;;;;;;0.73;0.73;;;16.50;99.90;;;;;;4863905;29;20045;-86
2022/06/06 13:38:31;;;;;;;0.75;0.63;;;16.50;99.90;;;;;;4863523;29;20453;-86
2022/06/06 13:41:10;;;;;;;0.98;0.88;;;16.60;99.90;;;;;;4874789;29;20641;-86
2022/06/06 13:43:56;;;;;;;0.80;0.80;;;16.50;99.90;;;;;;4865239;29;20063;-88
2022/06/06 13:46:44;;;;;;;1.00;0.77;;;16.40;99.90;;;;;;4863406;29;20124;-85
2022/06/06 13:49:15;;;;;;;2.08;0.80;;;16.30;99.90;;;;;;4863717;29;20399;-85
2022/06/06 13:51:49;;;;;;;2.80;0.75;;;17.20;99.90;;;;;;4848182;29;20140;-86
2022/06/06 13:54:36;;;;;;;0.70;0.70;;;16.20;99.90;;;;;;4877793;29;20049;-85
2022/06/06 13:57:26;;;;;;;0.90;0.90;;;16.10;99.90;;;;;;4878376;29;20108;-83
2022/06/06 14:00:08;;;;;;;1.33;1.20;;;15.90;99.90;;;;;;4879191;29;20053;-83
2022/06/06 14:02:53;;;;;;;1.10;1.00;;;15.70;99.90;;;;;;4890445;29;20539;-83
2022/06/06 14:05:28;;;;;;;1.25;1.15;;;15.40;99.90;;;;;;4880776;29;20120;-83
2022/06/06 14:08:16;;;;;;;1.60;1.15;;;15.20;99.90;;;;;;4881829;29;20044;-83
2022/06/06 14:10:51;;;;;;;2.67;1.73;;;15.00;99.90;;;;;;4898280;29;20061;-84
2022/06/06 14:13:24;;;;;;;1.67;1.55;;;14.90;99.90;;;;;;4896846;29;20496;-84
2022/06/06 14:15:52;;;;;;;1.60;1.50;;;14.90;99.90;;;;;;4866096;29;20064;-84
2022/06/06 14:18:28;;;;;;;1.75;1.60;;;14.80;99.90;;;;;;4897128;29;20056;-85